createdAt,value
2018-09-05T00:01:53.780Z,14.33
2018-09-05T00:04:21.254Z,14.90
2018-09-05T00:06:48.710Z,14.07
2018-09-05T00:09:16.274Z,14.17
2018-09-05T00:11:43.754Z,14.97
2018-09-05T00:14:12.018Z,13.60
2018-09-05T00:16:39.580Z,15.73
2018-09-05T00:19:07.036Z,15.50
2018-09-05T00:21:34.512Z,14.77
2018-09-05T00:24:03.505Z,15.03
2018-09-05T00:26:31.775Z,15.23
2018-09-05T00:28:59.343Z,13.83
2018-09-05T00:31:26.810Z,15.60
2018-09-05T00:33:54.281Z,14.07
2018-09-05T00:36:23.264Z,14.60
2018-09-05T00:38:50.727Z,14.40
2018-09-05T00:41:18.292Z,15.77
2018-09-05T00:43:45.770Z,15.87
2018-09-05T00:46:14.005Z,14.77
2018-09-05T00:48:41.463Z,14.47
2018-09-05T00:51:08.957Z,15.77
2018-09-05T00:53:36.522Z,15.13
2018-09-05T00:56:04.083Z,15.17
2018-09-05T00:58:31.651Z,13.73
2018-09-05T01:00:59.076Z,15.33
2018-09-05T01:03:26.575Z,16.10
2018-09-05T01:05:54.053Z,16.33
2018-09-05T01:08:21.515Z,15.20
2018-09-05T01:10:49.791Z,14.73
2018-09-05T01:13:17.272Z,15.60
2018-09-05T01:15:45.495Z,14.60
2018-09-05T01:18:12.995Z,15.20
2018-09-05T01:20:40.446Z,15.03
2018-09-05T01:23:08.012Z,15.03
2018-09-05T01:25:35.491Z,15.63
2018-09-05T01:28:04.452Z,15.87
2018-09-05T01:30:31.923Z,15.73
2018-09-05T01:32:59.401Z,14.30
2018-09-05T01:35:26.880Z,15.20
2018-09-05T01:37:54.416Z,16.53
2018-09-05T01:40:21.881Z,12.07
2018-09-05T01:42:49.359Z,16.83
2018-09-05T01:45:17.604Z,14.97
2018-09-05T01:47:45.076Z,14.80
2018-09-05T01:50:12.568Z,17.10
2018-09-05T01:52:40.019Z,16.50
2018-09-05T01:55:08.231Z,16.17
2018-09-05T01:57:35.744Z,15.27
2018-09-05T02:00:03.212Z,14.90
2018-09-05T02:02:30.778Z,15.57
2018-09-05T02:04:58.247Z,16.23
2018-09-05T02:07:25.797Z,15.77
2018-09-05T02:09:53.371Z,14.63
2018-09-05T02:12:20.824Z,15.90
2018-09-05T02:14:48.284Z,15.73
2018-09-05T02:17:15.862Z,15.33
2018-09-05T02:19:43.312Z,14.63
2018-09-05T02:22:10.884Z,14.20
2018-09-05T02:24:38.442Z,15.47
2018-09-05T02:27:05.912Z,14.30
2018-09-05T02:29:33.378Z,11.53
2018-09-05T02:32:00.845Z,16.50
2018-09-05T02:34:28.401Z,16.40
2018-09-05T02:36:55.877Z,15.07
2018-09-05T02:39:24.135Z,15.33
2018-09-05T02:41:51.699Z,15.43
2018-09-05T02:44:19.165Z,15.80
2018-09-05T02:49:10.085Z,15.13
2018-09-05T02:51:37.548Z,15.07
2018-09-05T02:54:05.124Z,14.73
2018-09-05T02:56:32.579Z,15.77
2018-09-05T02:59:00.053Z,16.60
2018-09-05T03:01:27.523Z,15.67
2018-09-05T03:03:54.997Z,14.53
2018-09-05T03:06:22.540Z,16.47
2018-09-05T03:08:49.998Z,15.93
2018-09-05T03:11:17.555Z,16.70
2018-09-05T03:13:45.027Z,14.00
2018-09-05T03:16:12.503Z,16.70
2018-09-05T03:18:40.068Z,13.57
2018-09-05T03:21:08.289Z,15.87
2018-09-05T03:23:35.783Z,13.57
2018-09-05T03:26:03.212Z,15.80
2018-09-05T03:28:30.680Z,15.43
2018-09-05T03:30:58.136Z,15.77
2018-09-05T03:33:25.650Z,15.10
2018-09-05T03:35:53.108Z,14.50
2018-09-05T03:38:20.673Z,15.43
2018-09-05T03:40:48.148Z,15.57
2018-09-05T03:43:15.695Z,14.53
2018-09-05T03:45:43.168Z,14.67
2018-09-05T03:48:10.627Z,14.90
2018-09-05T03:50:39.602Z,13.77
2018-09-05T03:53:07.076Z,14.53
2018-09-05T03:55:34.547Z,14.73
2018-09-05T03:58:02.104Z,15.03
2018-09-05T04:00:29.564Z,15.13
2018-09-05T04:02:57.138Z,14.53
2018-09-05T04:05:25.381Z,13.57
2018-09-05T04:07:52.839Z,15.07
2018-09-05T04:10:20.297Z,13.73
2018-09-05T04:12:47.802Z,14.50
2018-09-05T04:15:15.372Z,12.17
2018-09-05T04:17:42.845Z,13.27
2018-09-05T04:20:10.305Z,14.20
2018-09-05T04:22:38.577Z,13.57
2018-09-05T04:25:06.136Z,15.00
2018-09-05T04:27:33.638Z,11.93
2018-09-05T04:30:01.112Z,12.30
2018-09-05T04:32:28.633Z,15.03
2018-09-05T04:34:56.103Z,13.73
2018-09-05T04:37:24.776Z,15.97
2018-09-05T04:39:52.341Z,14.00
2018-09-05T04:42:19.787Z,17.23
2018-09-05T04:44:47.267Z,13.87
2018-09-05T04:47:14.815Z,19.10
2018-09-05T04:49:42.277Z,15.47
2018-09-05T04:52:09.738Z,18.27
2018-09-05T04:54:37.201Z,19.90
2018-09-05T04:57:04.657Z,20.23
2018-09-05T04:59:32.120Z,16.27
2018-09-05T05:01:59.599Z,19.93
2018-09-05T05:04:27.074Z,18.97
2018-09-05T05:06:55.759Z,16.80
2018-09-05T05:09:23.230Z,9.77
2018-09-05T05:11:50.690Z,8.37
2018-09-05T05:14:19.668Z,6.83
2018-09-05T05:16:47.125Z,5.47
2018-09-05T05:19:14.696Z,5.03
2018-09-05T05:21:42.259Z,6.30
2018-09-05T05:24:09.830Z,7.57
2018-09-05T05:26:37.396Z,8.57
2018-09-05T05:29:04.859Z,8.50
2018-09-05T05:31:32.428Z,9.00
2018-09-05T05:33:59.981Z,9.20
2018-09-05T05:36:27.450Z,9.37
2018-09-05T05:38:55.025Z,10.67
2018-09-05T05:41:22.498Z,11.00
2018-09-05T05:43:50.732Z,8.97
2018-09-05T05:46:18.200Z,8.93
2018-09-05T05:48:45.653Z,8.53
2018-09-05T05:51:13.104Z,7.43
2018-09-05T05:53:40.604Z,6.90
2018-09-05T05:56:08.068Z,6.43
2018-09-05T05:58:35.522Z,6.20
2018-09-05T06:01:02.998Z,5.53
2018-09-05T06:03:30.451Z,5.03
2018-09-05T06:05:58.253Z,4.63
2018-09-05T06:08:26.367Z,4.90
2018-09-05T06:10:53.846Z,4.23
2018-09-05T06:13:21.414Z,3.30
2018-09-05T06:15:48.871Z,3.67
2018-09-05T06:18:16.444Z,4.40
2018-09-05T06:20:43.891Z,3.93
2018-09-05T06:23:11.369Z,3.53
2018-09-05T06:25:38.823Z,2.60
2018-09-05T06:28:06.287Z,2.67
2018-09-05T06:30:33.884Z,3.50
2018-09-05T06:33:01.217Z,2.70
2018-09-05T06:35:28.670Z,3.90
2018-09-05T06:37:56.239Z,3.20
2018-09-05T06:40:23.802Z,2.87
2018-09-05T06:42:51.271Z,3.17
2018-09-05T06:45:18.891Z,2.93
2018-09-05T06:47:47.825Z,3.37
2018-09-05T06:50:15.276Z,3.67
2018-09-05T06:52:42.727Z,4.23
2018-09-05T06:55:10.195Z,4.30
2018-09-05T06:57:37.660Z,4.67
2018-09-05T07:00:05.115Z,5.00
2018-09-05T07:02:32.567Z,4.83
2018-09-05T07:05:00.028Z,5.90
2018-09-05T07:07:27.493Z,6.00
2018-09-05T07:09:54.992Z,6.27
2018-09-05T07:12:22.418Z,7.70
2018-09-05T07:14:49.904Z,8.50
2018-09-05T07:17:17.483Z,6.83
2018-09-05T07:19:44.946Z,8.20
2018-09-05T07:22:13.222Z,9.53
2018-09-05T07:24:40.785Z,8.63
2018-09-05T07:27:08.349Z,7.77
2018-09-05T07:29:35.818Z,8.00
2018-09-05T07:32:03.271Z,8.80
2018-09-05T07:34:30.738Z,8.60
2018-09-05T07:36:58.319Z,8.97
2018-09-05T07:39:25.767Z,7.53
2018-09-05T07:41:53.227Z,9.07
2018-09-05T07:44:20.799Z,9.30
2018-09-05T07:46:48.346Z,10.03
2018-09-05T07:49:15.821Z,9.47
2018-09-05T07:51:43.373Z,10.83
2018-09-05T07:54:10.861Z,8.77
2018-09-05T07:56:38.324Z,10.10
2018-09-05T07:59:06.554Z,11.93
2018-09-05T08:01:34.045Z,10.80
2018-09-05T08:04:01.501Z,12.10
2018-09-05T08:06:28.971Z,11.17
2018-09-05T08:08:56.436Z,10.53
2018-09-05T08:11:23.912Z,11.43
2018-09-05T08:13:51.451Z,9.83
2018-09-05T08:16:18.924Z,9.47
2018-09-05T08:18:46.376Z,9.43
2018-09-05T08:21:13.954Z,9.03
2018-09-05T08:23:41.504Z,10.17
2018-09-05T08:26:09.075Z,9.53
2018-09-05T08:28:36.646Z,10.60
2018-09-05T08:31:04.204Z,10.87
2018-09-05T08:33:31.665Z,11.10
2018-09-05T08:35:59.527Z,12.27
2018-09-05T08:38:27.567Z,11.60
2018-09-05T08:40:54.998Z,12.57
2018-09-05T08:43:23.231Z,11.87
2018-09-05T08:45:51.045Z,11.40
2018-09-05T08:48:18.250Z,11.43
2018-09-05T08:50:45.766Z,10.93
2018-09-05T08:53:13.233Z,11.87
2018-09-05T08:55:40.687Z,10.10
2018-09-05T08:58:08.928Z,11.97
2018-09-05T09:00:36.392Z,10.80
2018-09-05T09:03:03.954Z,10.87
2018-09-05T09:05:31.342Z,11.80
2018-09-05T09:07:58.863Z,12.73
2018-09-05T09:10:26.318Z,12.37
2018-09-05T09:12:53.809Z,8.03
2018-09-05T09:15:21.293Z,12.90
2018-09-05T09:17:48.757Z,12.47
2018-09-05T09:20:16.212Z,11.83
2018-09-05T09:22:43.776Z,11.63
2018-09-05T09:25:11.332Z,11.90
2018-09-05T09:27:40.326Z,9.83
2018-09-05T09:30:07.789Z,11.30
2018-09-05T09:32:35.260Z,9.37
2018-09-05T09:35:02.832Z,10.07
2018-09-05T09:37:30.381Z,10.40
2018-09-05T09:39:57.853Z,10.93
2018-09-05T09:42:25.299Z,9.57
2018-09-05T09:44:52.771Z,10.10
2018-09-05T09:47:20.329Z,8.03
2018-09-05T09:49:47.927Z,7.93
2018-09-05T09:52:16.156Z,9.10
2018-09-05T09:54:43.642Z,9.23
2018-09-05T09:57:11.201Z,8.87
2018-09-05T09:59:38.783Z,10.20
2018-09-05T10:02:23.044Z,10.30
2018-09-05T10:05:10.235Z,9.37
2018-09-05T10:07:37.728Z,9.70
2018-09-05T10:10:06.074Z,10.40
2018-09-05T10:12:49.227Z,9.43
2018-09-05T10:15:17.454Z,9.67
2018-09-05T10:17:44.920Z,10.67
2018-09-05T10:20:12.494Z,10.17
2018-09-05T10:22:40.058Z,9.43
2018-09-05T10:25:07.426Z,8.90
2018-09-05T10:27:34.988Z,8.50
2018-09-05T10:30:02.552Z,8.20
2018-09-05T10:32:30.831Z,11.17
2018-09-05T10:34:58.281Z,9.07
2018-09-05T10:37:25.741Z,10.43
2018-09-05T10:39:53.196Z,9.57
2018-09-05T10:42:20.782Z,9.55
2018-09-05T10:44:48.261Z,8.07
2018-09-05T10:47:16.509Z,9.47
2018-09-05T10:49:44.071Z,9.17
2018-09-05T10:52:11.646Z,11.77
2018-09-05T10:54:39.105Z,11.30
2018-09-05T10:57:06.672Z,11.03
2018-09-05T10:59:34.228Z,9.70
2018-09-05T11:02:01.808Z,10.03
2018-09-05T11:04:29.365Z,11.97
2018-09-05T11:06:56.861Z,10.13
2018-09-05T11:09:25.080Z,11.07
2018-09-05T11:11:52.561Z,12.50
2018-09-05T11:14:20.141Z,11.97
2018-09-05T11:16:47.703Z,12.60
2018-09-05T11:19:15.179Z,11.67
2018-09-05T11:21:43.447Z,12.90
2018-09-05T11:24:10.912Z,9.93
2018-09-05T11:26:38.380Z,10.87
2018-09-05T11:29:06.687Z,11.93
2018-09-05T11:31:34.205Z,11.13
2018-09-05T11:34:01.677Z,12.13
2018-09-05T11:36:29.139Z,10.20
2018-09-05T11:38:56.620Z,13.13
2018-09-05T11:41:24.858Z,8.73
2018-09-05T11:43:52.354Z,11.63
2018-09-05T11:46:19.814Z,12.03
2018-09-05T11:48:47.271Z,12.17
2018-09-05T11:51:16.353Z,12.63
2018-09-05T11:53:43.807Z,11.60
2018-09-05T11:56:11.271Z,13.97
2018-09-05T11:58:38.850Z,12.27
2018-09-05T12:01:06.334Z,13.17
2018-09-05T12:03:34.933Z,13.67
2018-09-05T12:06:03.168Z,14.60
2018-09-05T12:08:30.740Z,12.63
2018-09-05T12:10:58.297Z,12.13
2018-09-05T12:13:25.783Z,11.60
2018-09-05T12:15:53.322Z,9.97
2018-09-05T12:18:20.799Z,9.60
2018-09-05T12:20:48.264Z,9.80
2018-09-05T12:23:16.863Z,10.20
2018-09-05T12:25:45.470Z,10.13
2018-09-05T12:28:13.705Z,9.63
2018-09-05T12:30:41.174Z,9.27
2018-09-05T12:33:08.647Z,8.97
2018-09-05T12:35:36.200Z,8.30
2018-09-05T12:38:03.651Z,9.77
2018-09-05T12:40:31.114Z,8.17
2018-09-05T12:42:58.688Z,9.03
2018-09-05T12:45:26.139Z,8.23
2018-09-05T12:47:53.709Z,7.57
2018-09-05T12:50:21.168Z,7.13
2018-09-05T12:52:48.650Z,7.87
2018-09-05T12:55:16.918Z,7.40
2018-09-05T12:57:44.387Z,6.83
2018-09-05T13:00:11.937Z,6.87
2018-09-05T13:02:39.465Z,6.73
2018-09-05T13:05:06.962Z,6.07
2018-09-05T13:07:34.426Z,6.53
2018-09-05T13:10:01.897Z,6.80
2018-09-05T13:12:29.462Z,6.63
2018-09-05T13:14:57.020Z,6.67
2018-09-05T13:17:24.475Z,7.10
2018-09-05T13:19:53.093Z,7.13
2018-09-05T13:22:21.332Z,7.87
2018-09-05T13:24:48.885Z,6.73
2018-09-05T13:27:16.355Z,7.97
2018-09-05T13:29:43.819Z,9.47
2018-09-05T13:32:11.283Z,10.30
2018-09-05T13:34:38.748Z,10.67
2018-09-05T13:37:06.235Z,8.83
2018-09-05T13:39:33.709Z,9.20
2018-09-05T13:42:02.040Z,8.77
2018-09-05T13:44:29.500Z,8.10
2018-09-05T13:46:56.983Z,9.53
2018-09-05T13:49:24.467Z,10.13
2018-09-05T13:51:51.928Z,9.93
2018-09-05T13:54:19.444Z,9.30
2018-09-05T13:56:46.923Z,9.27
2018-09-05T13:59:14.392Z,10.30
2018-09-05T14:01:41.871Z,10.73
2018-09-05T14:04:09.378Z,9.70
2018-09-05T14:06:37.607Z,11.23
2018-09-05T14:09:05.178Z,11.07
2018-09-05T14:11:32.657Z,10.13
2018-09-05T14:14:00.944Z,10.10
2018-09-05T14:16:28.418Z,9.77
2018-09-05T14:18:56.648Z,10.40
2018-09-05T14:21:24.230Z,11.23
2018-09-05T14:23:51.694Z,10.40
2018-09-05T14:26:19.170Z,10.27
2018-09-05T14:28:47.427Z,11.13
2018-09-05T14:31:14.904Z,11.53
2018-09-05T14:33:42.363Z,10.50
2018-09-05T14:36:09.852Z,12.83
2018-09-05T14:38:38.099Z,11.83
2018-09-05T14:41:05.590Z,12.03
2018-09-05T14:43:34.255Z,11.47
2018-09-05T14:46:01.840Z,12.60
2018-09-05T14:48:30.112Z,10.27
2018-09-05T14:50:57.565Z,11.60
2018-09-05T14:53:25.064Z,10.53
2018-09-05T14:55:53.311Z,12.13
2018-09-05T14:58:20.870Z,10.60
2018-09-05T15:00:49.852Z,12.40
2018-09-05T15:03:17.314Z,9.10
2018-09-05T15:05:46.356Z,10.30
2018-09-05T15:08:15.009Z,8.90
2018-09-05T15:10:42.473Z,10.03
2018-09-05T15:13:09.931Z,9.23
2018-09-05T15:15:37.503Z,8.10
2018-09-05T15:18:04.966Z,8.43
2018-09-05T15:20:32.423Z,8.80
2018-09-05T15:22:59.888Z,8.80
2018-09-05T15:25:27.449Z,7.67
2018-09-05T15:27:54.908Z,7.97
2018-09-05T15:30:22.359Z,7.30
2018-09-05T15:32:49.818Z,6.93
2018-09-05T15:35:17.307Z,7.07
2018-09-05T15:37:44.868Z,7.07
2018-09-05T15:40:12.427Z,6.67
2018-09-05T15:42:39.893Z,6.90
2018-09-05T15:45:07.347Z,8.47
2018-09-05T15:47:35.998Z,8.00
2018-09-05T15:50:03.514Z,8.13
2018-09-05T15:52:30.925Z,8.90
2018-09-05T15:54:58.462Z,9.50
2018-09-05T15:57:26.704Z,9.13
2018-09-05T15:59:54.200Z,8.43
2018-09-05T16:02:22.432Z,7.83
2018-09-05T16:04:49.899Z,7.73
2018-09-05T16:07:17.369Z,8.57
2018-09-05T16:09:44.947Z,7.87
2018-09-05T16:12:12.413Z,8.70
2018-09-05T16:14:39.886Z,7.83
2018-09-05T16:17:08.143Z,9.20
2018-09-05T16:19:35.596Z,7.77
2018-09-05T16:22:03.052Z,8.57
2018-09-05T16:24:30.516Z,7.63
2018-09-05T16:26:58.111Z,7.23
2018-09-05T16:29:25.561Z,7.47
2018-09-05T16:31:53.041Z,7.53
2018-09-05T16:34:21.276Z,7.80
2018-09-05T16:36:48.756Z,7.80
2018-09-05T16:39:16.329Z,7.93
2018-09-05T16:41:43.898Z,7.40
2018-09-05T16:44:11.359Z,6.83
2018-09-05T16:46:38.921Z,7.27
2018-09-05T16:49:06.394Z,6.57
2018-09-05T16:51:33.858Z,6.67
2018-09-05T16:54:02.818Z,8.10
2018-09-05T16:56:30.287Z,8.23
2018-09-05T16:58:57.752Z,7.80
2018-09-05T17:01:25.322Z,7.47
2018-09-05T17:03:52.781Z,7.43
2018-09-05T17:06:20.354Z,7.47
2018-09-05T17:08:47.913Z,7.60
2018-09-05T17:11:15.459Z,7.60
2018-09-05T17:13:42.848Z,7.73
2018-09-05T17:16:10.318Z,7.00
2018-09-05T17:18:37.855Z,7.17
2018-09-05T17:21:05.318Z,7.77
2018-09-05T17:23:32.810Z,7.93
2018-09-05T17:26:00.254Z,7.77
2018-09-05T17:28:27.900Z,7.93
2018-09-05T17:30:55.280Z,8.67
2018-09-05T17:33:22.902Z,8.80
2018-09-05T17:35:50.400Z,8.93
2018-09-05T17:38:17.870Z,8.60
2018-09-05T17:40:45.344Z,9.10
2018-09-05T17:43:12.816Z,7.57
2018-09-05T17:45:41.075Z,9.40
2018-09-05T17:48:08.639Z,10.03
2018-09-05T17:50:36.102Z,9.47
2018-09-05T17:53:03.555Z,9.80
2018-09-05T17:55:31.020Z,9.77
2018-09-05T17:57:58.479Z,10.10
2018-09-05T18:00:25.947Z,9.60
2018-09-05T18:02:53.419Z,11.17
2018-09-05T18:05:20.884Z,9.73
2018-09-05T18:07:48.348Z,10.27
2018-09-05T18:10:15.816Z,9.50
2018-09-05T18:12:44.039Z,9.30
2018-09-05T18:15:11.502Z,9.07
2018-09-05T18:17:38.964Z,8.60
2018-09-05T18:20:06.428Z,8.43
2018-09-05T18:22:33.921Z,8.73
2018-09-05T18:25:01.488Z,8.20
2018-09-05T18:27:28.962Z,7.10
2018-09-05T18:29:56.428Z,8.10
2018-09-05T18:32:23.891Z,7.70
2018-09-05T18:34:51.376Z,8.33
2018-09-05T18:37:19.596Z,8.60
2018-09-05T18:39:47.089Z,7.60
2018-09-05T18:42:15.321Z,8.13
2018-09-05T18:44:43.996Z,7.63
2018-09-05T18:47:12.342Z,8.10
2018-09-05T18:49:39.897Z,7.03
2018-09-05T18:52:07.371Z,6.63
2018-09-05T18:54:34.921Z,6.73
2018-09-05T18:57:02.392Z,8.00
2018-09-05T18:59:29.951Z,6.97
2018-09-05T19:01:57.414Z,7.87
2018-09-05T19:04:24.866Z,7.20
2018-09-05T19:06:52.341Z,7.73
2018-09-05T19:09:19.907Z,7.67
2018-09-05T19:11:47.364Z,7.83
2018-09-05T19:14:14.857Z,8.00
2018-09-05T19:16:42.397Z,8.17
2018-09-05T19:19:09.905Z,7.33
2018-09-05T19:21:37.361Z,8.03
2018-09-05T19:24:04.817Z,7.33
2018-09-05T19:26:33.151Z,7.63
2018-09-05T19:29:00.628Z,7.03
2018-09-05T19:31:28.096Z,6.60
2018-09-05T19:33:55.640Z,7.83
2018-09-05T19:36:23.105Z,7.37
2018-09-05T19:38:50.582Z,6.90
2018-09-05T19:41:18.031Z,6.83
2018-09-05T19:43:45.505Z,6.50
2018-09-05T19:46:13.051Z,6.57
2018-09-05T19:48:40.618Z,6.33
2018-09-05T19:51:08.079Z,7.27
2018-09-05T19:53:35.535Z,6.93
2018-09-05T19:56:03.820Z,6.60
2018-09-05T19:58:31.287Z,6.93
2018-09-05T20:00:58.763Z,6.43
2018-09-05T20:03:26.228Z,7.97
2018-09-05T20:05:53.684Z,6.87
2018-09-05T20:08:21.245Z,7.43
2018-09-05T20:10:48.791Z,7.20
2018-09-05T20:13:16.273Z,7.10
2018-09-05T20:15:43.732Z,7.10
2018-09-05T20:18:11.201Z,7.10
2018-09-05T20:20:38.748Z,7.70
2018-09-05T20:23:06.205Z,8.50
2018-09-05T20:25:33.672Z,8.47
2018-09-05T20:28:01.135Z,9.03
2018-09-05T20:30:28.602Z,7.77
2018-09-05T20:32:56.079Z,8.90
2018-09-05T20:35:23.536Z,9.07
2018-09-05T20:37:51.092Z,7.73
2018-09-05T20:40:18.652Z,9.87
2018-09-05T20:42:46.232Z,10.23
2018-09-05T20:45:13.701Z,10.07
2018-09-05T20:47:41.250Z,9.97
2018-09-05T20:50:08.805Z,10.50
2018-09-05T20:52:36.262Z,10.17
2018-09-05T20:55:03.842Z,9.30
2018-09-05T20:57:31.312Z,8.80
2018-09-05T20:59:58.762Z,9.67
2018-09-05T21:02:26.223Z,9.37
2018-09-05T21:04:53.795Z,9.70
2018-09-05T21:07:21.264Z,9.57
2018-09-05T21:09:49.478Z,9.40
2018-09-05T21:12:16.991Z,10.10
2018-09-05T21:14:44.455Z,9.47
2018-09-05T21:17:11.916Z,10.07
2018-09-05T21:19:39.500Z,10.47
2018-09-05T21:22:06.966Z,7.30
2018-09-05T21:24:34.505Z,10.60
2018-09-05T21:27:01.963Z,9.67
2018-09-05T21:29:29.416Z,9.97
2018-09-05T21:31:56.883Z,10.10
2018-09-05T21:34:24.354Z,9.03
2018-09-05T21:36:51.921Z,10.23
2018-09-05T21:39:19.390Z,11.20
2018-09-05T21:41:46.860Z,7.70
2018-09-05T21:44:14.408Z,10.93
2018-09-05T21:46:41.970Z,9.50
2018-09-05T21:49:09.546Z,11.47
2018-09-05T21:51:37.096Z,9.80
2018-09-05T21:54:04.558Z,9.43
2018-09-05T21:56:32.020Z,11.63
2018-09-05T21:58:59.480Z,9.90
2018-09-05T22:01:27.043Z,10.63
2018-09-05T22:03:54.509Z,11.77
2018-09-05T22:06:22.083Z,11.13
2018-09-05T22:08:49.642Z,11.83
2018-09-05T22:11:17.100Z,12.10
2018-09-05T22:13:44.690Z,10.30
2018-09-05T22:16:12.233Z,11.30
2018-09-05T22:18:39.705Z,9.90
2018-09-05T22:21:07.266Z,10.17
2018-09-05T22:23:34.820Z,10.97
2018-09-05T22:26:02.392Z,11.80
2018-09-05T22:28:30.015Z,11.60
2018-09-05T22:30:57.470Z,10.23
2018-09-05T22:35:50.376Z,10.87
2018-09-05T22:38:17.860Z,12.10
2018-09-05T22:40:45.333Z,11.03
2018-09-05T22:43:34.538Z,12.07
2018-09-05T22:46:13.963Z,11.03
2018-09-05T22:48:41.416Z,9.57
2018-09-05T22:51:29.322Z,11.30
2018-09-05T22:54:14.996Z,9.87
2018-09-05T22:59:34.978Z,10.60
2018-09-05T23:02:02.440Z,9.30
2018-09-05T23:04:29.901Z,7.60
2018-09-05T23:06:57.359Z,7.60
2018-09-05T23:09:24.837Z,7.07
2018-09-05T23:11:53.801Z,7.37
2018-09-05T23:14:21.286Z,7.57
2018-09-05T23:16:56.605Z,6.53
2018-09-05T23:19:23.992Z,6.80
2018-09-05T23:21:51.547Z,6.67
2018-09-05T23:24:19.109Z,6.53
2018-09-05T23:26:46.567Z,6.37
2018-09-05T23:29:14.144Z,6.40
2018-09-05T23:31:42.369Z,6.20
2018-09-05T23:34:09.831Z,6.70
2018-09-05T23:36:37.292Z,6.53
2018-09-05T23:39:04.763Z,6.53
2018-09-05T23:41:32.229Z,5.70
2018-09-05T23:43:59.685Z,6.23
2018-09-05T23:46:27.139Z,6.50
2018-09-05T23:48:54.646Z,6.53
2018-09-05T23:51:22.117Z,6.87
2018-09-05T23:53:49.673Z,6.17
2018-09-05T23:56:17.138Z,6.50
2018-09-05T23:58:44.610Z,6.27
